sensor_id;sensor_type;location;lat;lon;timestamp;temperature;humidity
6662;DHT22;3367;48.714;8.994;2022-09-21T00:01:11;5.60;1.00
6662;DHT22;3367;48.714;8.994;2022-09-21T00:03:38;5.60;99.90
6662;DHT22;3367;48.714;8.994;2022-09-21T00:06:08;5.60;99.90
6662;DHT22;3367;48.714;8.994;2022-09-21T00:08:35;5.60;99.90
6662;DHT22;3367;48.714;8.994;2022-09-21T00:11:02;5.50;99.90
6662;DHT22;3367;48.714;8.994;2022-09-21T00:13:29;5.50;99.90
6662;DHT22;3367;48.714;8.994;2022-09-21T00:15:59;5.50;1.00
6662;DHT22;3367;48.714;8.994;2022-09-21T00:18:26;5.50;1.00
6662;DHT22;3367;48.714;8.994;2022-09-21T00:20:53;5.60;1.00
6662;DHT22;3367;48.714;8.994;2022-09-21T00:23:19;5.60;99.90
6662;DHT22;3367;48.714;8.994;2022-09-21T00:25:46;5.60;1.00
6662;DHT22;3367;48.714;8.994;2022-09-21T00:28:13;5.60;1.00
6662;DHT22;3367;48.714;8.994;2022-09-21T00:30:39;5.60;1.00
6662;DHT22;3367;48.714;8.994;2022-09-21T00:33:07;5.50;1.00
6662;DHT22;3367;48.714;8.994;2022-09-21T00:35:34;5.40;1.00
6662;DHT22;3367;48.714;8.994;2022-09-21T00:38:01;5.40;1.00
6662;DHT22;3367;48.714;8.994;2022-09-21T00:40:28;5.40;1.00
6662;DHT22;3367;48.714;8.994;2022-09-21T00:43:13;5.30;1.00
6662;DHT22;3367;48.714;8.994;2022-09-21T00:45:41;5.30;1.00
6662;DHT22;3367;48.714;8.994;2022-09-21T00:48:10;5.30;1.00
6662;DHT22;3367;48.714;8.994;2022-09-21T00:50:39;5.30;99.90
6662;DHT22;3367;48.714;8.994;2022-09-21T00:53:08;5.30;99.90
6662;DHT22;3367;48.714;8.994;2022-09-21T00:55:38;5.30;99.90
6662;DHT22;3367;48.714;8.994;2022-09-21T00:58:08;5.20;99.90
6662;DHT22;3367;48.714;8.994;2022-09-21T01:00:36;5.20;99.90
6662;DHT22;3367;48.714;8.994;2022-09-21T01:03:05;5.10;94.10
6662;DHT22;3367;48.714;8.994;2022-09-21T01:05:34;5.10;1.00
6662;DHT22;3367;48.714;8.994;2022-09-21T01:08:04;5.10;1.00
6662;DHT22;3367;48.714;8.994;2022-09-21T01:10:40;5.10;1.00
6662;DHT22;3367;48.714;8.994;2022-09-21T01:13:19;5.10;1.00
6662;DHT22;3367;48.714;8.994;2022-09-21T01:15:54;5.10;1.00
6662;DHT22;3367;48.714;8.994;2022-09-21T01:18:29;5.00;1.00
6662;DHT22;3367;48.714;8.994;2022-09-21T01:21:20;5.00;1.00
6662;DHT22;3367;48.714;8.994;2022-09-21T01:27:07;4.90;1.00
6662;DHT22;3367;48.714;8.994;2022-09-21T01:29:41;4.90;1.00
6662;DHT22;3367;48.714;8.994;2022-09-21T01:32:12;4.90;1.00
6662;DHT22;3367;48.714;8.994;2022-09-21T01:34:44;4.90;1.00
6662;DHT22;3367;48.714;8.994;2022-09-21T01:37:17;4.80;1.00
6662;DHT22;3367;48.714;8.994;2022-09-21T01:39:48;4.80;1.00
6662;DHT22;3367;48.714;8.994;2022-09-21T01:42:16;4.80;1.00
6662;DHT22;3367;48.714;8.994;2022-09-21T01:44:46;4.80;1.00
6662;DHT22;3367;48.714;8.994;2022-09-21T01:47:16;4.80;1.00
6662;DHT22;3367;48.714;8.994;2022-09-21T01:49:52;4.70;1.00
6662;DHT22;3367;48.714;8.994;2022-09-21T01:52:23;4.70;1.00
6662;DHT22;3367;48.714;8.994;2022-09-21T01:54:57;4.70;1.00
6662;DHT22;3367;48.714;8.994;2022-09-21T01:57:33;4.70;1.00
6662;DHT22;3367;48.714;8.994;2022-09-21T02:00:03;4.70;1.00
6662;DHT22;3367;48.714;8.994;2022-09-21T02:02:34;4.60;1.00
6662;DHT22;3367;48.714;8.994;2022-09-21T02:05:04;4.60;1.00
6662;DHT22;3367;48.714;8.994;2022-09-21T02:07:31;4.60;99.90
6662;DHT22;3367;48.714;8.994;2022-09-21T02:09:59;4.50;1.00
6662;DHT22;3367;48.714;8.994;2022-09-21T02:12:27;4.50;1.00
6662;DHT22;3367;48.714;8.994;2022-09-21T02:14:56;4.50;1.00
6662;DHT22;3367;48.714;8.994;2022-09-21T02:17:31;4.50;1.00
6662;DHT22;3367;48.714;8.994;2022-09-21T02:20:06;4.40;1.00
6662;DHT22;3367;48.714;8.994;2022-09-21T02:22:42;4.50;1.00
6662;DHT22;3367;48.714;8.994;2022-09-21T02:25:17;4.50;1.00
6662;DHT22;3367;48.714;8.994;2022-09-21T02:27:51;4.50;1.00
6662;DHT22;3367;48.714;8.994;2022-09-21T02:30:20;4.50;99.90
6662;DHT22;3367;48.714;8.994;2022-09-21T02:32:54;4.50;99.90
6662;DHT22;3367;48.714;8.994;2022-09-21T02:35:30;4.50;99.90
6662;DHT22;3367;48.714;8.994;2022-09-21T02:38:06;4.50;74.70
6662;DHT22;3367;48.714;8.994;2022-09-21T02:40:36;4.40;1.00
6662;DHT22;3367;48.714;8.994;2022-09-21T02:43:08;4.40;97.40
6662;DHT22;3367;48.714;8.994;2022-09-21T02:45:40;4.40;42.60
6662;DHT22;3367;48.714;8.994;2022-09-21T02:48:11;4.40;1.00
6662;DHT22;3367;48.714;8.994;2022-09-21T02:50:41;4.30;1.00
6662;DHT22;3367;48.714;8.994;2022-09-21T02:53:10;4.30;1.00
6662;DHT22;3367;48.714;8.994;2022-09-21T02:55:38;4.30;1.00
6662;DHT22;3367;48.714;8.994;2022-09-21T02:58:07;4.30;1.00
6662;DHT22;3367;48.714;8.994;2022-09-21T03:00:35;4.30;1.00
6662;DHT22;3367;48.714;8.994;2022-09-21T03:03:15;4.20;1.00
6662;DHT22;3367;48.714;8.994;2022-09-21T03:05:43;4.20;1.00
6662;DHT22;3367;48.714;8.994;2022-09-21T03:08:10;4.20;1.00
6662;DHT22;3367;48.714;8.994;2022-09-21T03:10:36;4.10;1.00
6662;DHT22;3367;48.714;8.994;2022-09-21T03:13:05;4.10;1.00
6662;DHT22;3367;48.714;8.994;2022-09-21T03:15:33;4.10;1.00
6662;DHT22;3367;48.714;8.994;2022-09-21T03:18:00;4.00;1.00
6662;DHT22;3367;48.714;8.994;2022-09-21T03:20:29;4.00;1.00
6662;DHT22;3367;48.714;8.994;2022-09-21T03:22:56;4.00;1.00
6662;DHT22;3367;48.714;8.994;2022-09-21T03:25:23;4.00;1.00
6662;DHT22;3367;48.714;8.994;2022-09-21T03:27:50;4.00;1.00
6662;DHT22;3367;48.714;8.994;2022-09-21T03:30:18;4.00;1.00
6662;DHT22;3367;48.714;8.994;2022-09-21T03:32:45;4.00;1.00
6662;DHT22;3367;48.714;8.994;2022-09-21T03:35:14;3.90;1.00
6662;DHT22;3367;48.714;8.994;2022-09-21T03:37:42;4.00;1.00
6662;DHT22;3367;48.714;8.994;2022-09-21T03:40:09;3.90;64.60
6662;DHT22;3367;48.714;8.994;2022-09-21T03:42:37;4.00;99.90
6662;DHT22;3367;48.714;8.994;2022-09-21T03:45:04;4.00;5.50
6662;DHT22;3367;48.714;8.994;2022-09-21T03:47:31;3.90;55.20
6662;DHT22;3367;48.714;8.994;2022-09-21T03:49:58;3.90;1.00
6662;DHT22;3367;48.714;8.994;2022-09-21T03:52:24;3.90;1.00
6662;DHT22;3367;48.714;8.994;2022-09-21T03:54:52;3.90;1.00
6662;DHT22;3367;48.714;8.994;2022-09-21T03:57:20;3.90;1.00
6662;DHT22;3367;48.714;8.994;2022-09-21T03:59:46;3.90;1.00
6662;DHT22;3367;48.714;8.994;2022-09-21T04:02:13;3.90;99.90
6662;DHT22;3367;48.714;8.994;2022-09-21T04:04:40;4.00;99.90
6662;DHT22;3367;48.714;8.994;2022-09-21T04:07:07;4.00;82.60
6662;DHT22;3367;48.714;8.994;2022-09-21T04:09:33;3.90;67.50
6662;DHT22;3367;48.714;8.994;2022-09-21T04:12:02;3.90;77.60
6662;DHT22;3367;48.714;8.994;2022-09-21T04:14:29;3.90;1.00
6662;DHT22;3367;48.714;8.994;2022-09-21T04:16:56;3.80;1.00
6662;DHT22;3367;48.714;8.994;2022-09-21T04:19:22;3.90;23.60
6662;DHT22;3367;48.714;8.994;2022-09-21T04:21:49;4.00;99.90
6662;DHT22;3367;48.714;8.994;2022-09-21T04:24:17;3.80;28.50
6662;DHT22;3367;48.714;8.994;2022-09-21T04:26:44;3.80;59.60
6662;DHT22;3367;48.714;8.994;2022-09-21T04:29:13;3.80;1.00
6662;DHT22;3367;48.714;8.994;2022-09-21T04:31:40;3.90;50.10
6662;DHT22;3367;48.714;8.994;2022-09-21T04:34:08;3.70;99.90
6662;DHT22;3367;48.714;8.994;2022-09-21T04:36:37;3.70;1.00
6662;DHT22;3367;48.714;8.994;2022-09-21T04:39:04;3.70;99.90
6662;DHT22;3367;48.714;8.994;2022-09-21T04:41:31;3.70;99.90
6662;DHT22;3367;48.714;8.994;2022-09-21T04:43:58;3.70;1.00
6662;DHT22;3367;48.714;8.994;2022-09-21T04:46:27;3.70;21.00
6662;DHT22;3367;48.714;8.994;2022-09-21T04:48:53;3.70;3.10
6662;DHT22;3367;48.714;8.994;2022-09-21T04:51:20;3.60;1.00
6662;DHT22;3367;48.714;8.994;2022-09-21T04:53:47;3.50;1.00
6662;DHT22;3367;48.714;8.994;2022-09-21T04:56:14;3.50;1.00
6662;DHT22;3367;48.714;8.994;2022-09-21T04:58:41;3.50;1.00
6662;DHT22;3367;48.714;8.994;2022-09-21T05:01:08;3.50;1.00
6662;DHT22;3367;48.714;8.994;2022-09-21T05:03:37;3.40;1.00
6662;DHT22;3367;48.714;8.994;2022-09-21T05:06:04;3.40;1.00
6662;DHT22;3367;48.714;8.994;2022-09-21T05:08:32;3.50;1.00
6662;DHT22;3367;48.714;8.994;2022-09-21T05:11:17;3.50;1.00
6662;DHT22;3367;48.714;8.994;2022-09-21T05:13:45;3.60;99.90
6662;DHT22;3367;48.714;8.994;2022-09-21T05:16:12;3.60;1.00
6662;DHT22;3367;48.714;8.994;2022-09-21T05:18:41;3.70;1.00
6662;DHT22;3367;48.714;8.994;2022-09-21T05:21:08;3.80;99.90
6662;DHT22;3367;48.714;8.994;2022-09-21T05:23:36;3.90;1.00
6662;DHT22;3367;48.714;8.994;2022-09-21T05:26:03;4.00;99.90
6662;DHT22;3367;48.714;8.994;2022-09-21T05:28:31;4.30;99.90
6662;DHT22;3367;48.714;8.994;2022-09-21T05:31:03;4.30;1.00
6662;DHT22;3367;48.714;8.994;2022-09-21T05:33:31;4.20;99.90
6662;DHT22;3367;48.714;8.994;2022-09-21T05:36:08;4.10;1.00
6662;DHT22;3367;48.714;8.994;2022-09-21T05:38:37;4.10;1.00
6662;DHT22;3367;48.714;8.994;2022-09-21T05:41:05;4.30;99.90
6662;DHT22;3367;48.714;8.994;2022-09-21T05:43:32;4.50;99.90
6662;DHT22;3367;48.714;8.994;2022-09-21T05:46:04;4.40;1.00
6662;DHT22;3367;48.714;8.994;2022-09-21T05:48:36;4.20;99.90
6662;DHT22;3367;48.714;8.994;2022-09-21T05:51:11;4.40;1.00
6662;DHT22;3367;48.714;8.994;2022-09-21T05:53:49;4.30;99.90
6662;DHT22;3367;48.714;8.994;2022-09-21T05:56:29;4.30;1.00
6662;DHT22;3367;48.714;8.994;2022-09-21T05:59:04;4.40;1.00
6662;DHT22;3367;48.714;8.994;2022-09-21T06:01:41;4.50;1.00
6662;DHT22;3367;48.714;8.994;2022-09-21T06:04:12;4.70;1.00
6662;DHT22;3367;48.714;8.994;2022-09-21T06:06:40;5.10;1.00
6662;DHT22;3367;48.714;8.994;2022-09-21T06:09:07;5.60;1.00
6662;DHT22;3367;48.714;8.994;2022-09-21T06:11:34;5.80;1.00
6662;DHT22;3367;48.714;8.994;2022-09-21T06:14:01;5.90;1.00
6662;DHT22;3367;48.714;8.994;2022-09-21T06:16:36;5.90;1.00
6662;DHT22;3367;48.714;8.994;2022-09-21T06:19:03;6.00;1.00
6662;DHT22;3367;48.714;8.994;2022-09-21T06:21:29;6.40;99.90
6662;DHT22;3367;48.714;8.994;2022-09-21T06:23:58;6.70;1.00
6662;DHT22;3367;48.714;8.994;2022-09-21T06:26:26;7.00;1.00
6662;DHT22;3367;48.714;8.994;2022-09-21T06:28:53;7.20;99.90
6662;DHT22;3367;48.714;8.994;2022-09-21T06:31:20;7.60;1.00
6662;DHT22;3367;48.714;8.994;2022-09-21T06:33:47;7.90;1.00
6662;DHT22;3367;48.714;8.994;2022-09-21T06:36:14;8.20;1.00
6662;DHT22;3367;48.714;8.994;2022-09-21T06:38:41;8.40;1.00
6662;DHT22;3367;48.714;8.994;2022-09-21T06:41:10;8.50;1.00
6662;DHT22;3367;48.714;8.994;2022-09-21T06:43:37;8.90;99.90
6662;DHT22;3367;48.714;8.994;2022-09-21T06:46:04;9.30;99.90
6662;DHT22;3367;48.714;8.994;2022-09-21T06:48:34;9.70;1.00
6662;DHT22;3367;48.714;8.994;2022-09-21T06:51:02;10.10;1.00
6662;DHT22;3367;48.714;8.994;2022-09-21T06:53:30;10.30;1.00
6662;DHT22;3367;48.714;8.994;2022-09-21T06:56:00;10.50;1.00
6662;DHT22;3367;48.714;8.994;2022-09-21T06:58:29;10.70;1.00
6662;DHT22;3367;48.714;8.994;2022-09-21T07:00:55;11.30;1.00
6662;DHT22;3367;48.714;8.994;2022-09-21T07:03:23;11.20;1.00
6662;DHT22;3367;48.714;8.994;2022-09-21T07:05:49;11.20;1.00
6662;DHT22;3367;48.714;8.994;2022-09-21T07:08:16;11.30;1.00
6662;DHT22;3367;48.714;8.994;2022-09-21T07:10:43;11.50;1.00
6662;DHT22;3367;48.714;8.994;2022-09-21T07:13:10;11.70;1.00
6662;DHT22;3367;48.714;8.994;2022-09-21T07:15:38;12.10;1.00
6662;DHT22;3367;48.714;8.994;2022-09-21T07:18:10;11.90;1.00
6662;DHT22;3367;48.714;8.994;2022-09-21T07:20:37;12.00;1.00
6662;DHT22;3367;48.714;8.994;2022-09-21T07:23:09;12.30;99.90
6662;DHT22;3367;48.714;8.994;2022-09-21T07:25:35;12.10;1.00
6662;DHT22;3367;48.714;8.994;2022-09-21T07:28:02;12.00;1.00
6662;DHT22;3367;48.714;8.994;2022-09-21T07:30:29;12.00;1.00
6662;DHT22;3367;48.714;8.994;2022-09-21T07:32:57;12.10;1.00
6662;DHT22;3367;48.714;8.994;2022-09-21T07:35:24;12.00;1.00
6662;DHT22;3367;48.714;8.994;2022-09-21T07:37:51;11.80;99.90
6662;DHT22;3367;48.714;8.994;2022-09-21T07:40:17;11.80;1.00
6662;DHT22;3367;48.714;8.994;2022-09-21T07:42:44;11.80;1.00
6662;DHT22;3367;48.714;8.994;2022-09-21T07:45:11;11.80;1.00
6662;DHT22;3367;48.714;8.994;2022-09-21T07:47:38;11.70;93.10
6662;DHT22;3367;48.714;8.994;2022-09-21T07:50:07;11.90;1.00
6662;DHT22;3367;48.714;8.994;2022-09-21T07:52:34;12.00;1.00
6662;DHT22;3367;48.714;8.994;2022-09-21T07:55:01;12.00;1.00
6662;DHT22;3367;48.714;8.994;2022-09-21T07:57:27;11.90;1.00
6662;DHT22;3367;48.714;8.994;2022-09-21T08:00:12;11.80;1.00
6662;DHT22;3367;48.714;8.994;2022-09-21T08:02:39;12.00;1.00
6662;DHT22;3367;48.714;8.994;2022-09-21T08:05:08;12.10;1.00
6662;DHT22;3367;48.714;8.994;2022-09-21T08:07:34;12.10;1.00
6662;DHT22;3367;48.714;8.994;2022-09-21T08:10:01;12.00;1.00
6662;DHT22;3367;48.714;8.994;2022-09-21T08:12:28;12.00;1.00
6662;DHT22;3367;48.714;8.994;2022-09-21T08:14:55;12.00;1.00
6662;DHT22;3367;48.714;8.994;2022-09-21T08:17:22;12.00;1.00
6662;DHT22;3367;48.714;8.994;2022-09-21T08:19:49;12.10;1.00
6662;DHT22;3367;48.714;8.994;2022-09-21T08:22:17;12.20;1.00
6662;DHT22;3367;48.714;8.994;2022-09-21T08:24:47;12.10;1.00
6662;DHT22;3367;48.714;8.994;2022-09-21T08:27:14;12.20;1.00
6662;DHT22;3367;48.714;8.994;2022-09-21T08:29:40;12.20;1.00
6662;DHT22;3367;48.714;8.994;2022-09-21T08:32:08;12.30;1.00
6662;DHT22;3367;48.714;8.994;2022-09-21T08:34:34;12.30;99.90
6662;DHT22;3367;48.714;8.994;2022-09-21T08:37:01;12.30;1.00
6662;DHT22;3367;48.714;8.994;2022-09-21T08:39:30;12.40;99.90
6662;DHT22;3367;48.714;8.994;2022-09-21T08:42:08;12.30;99.90
6662;DHT22;3367;48.714;8.994;2022-09-21T08:44:38;12.10;99.90
6662;DHT22;3367;48.714;8.994;2022-09-21T08:47:12;12.20;99.90
6662;DHT22;3367;48.714;8.994;2022-09-21T08:49:46;12.10;99.90
6662;DHT22;3367;48.714;8.994;2022-09-21T08:52:17;12.00;99.90
6662;DHT22;3367;48.714;8.994;2022-09-21T08:54:50;12.10;99.90
6662;DHT22;3367;48.714;8.994;2022-09-21T08:57:22;12.00;99.90
6662;DHT22;3367;48.714;8.994;2022-09-21T08:59:52;12.00;1.00
6662;DHT22;3367;48.714;8.994;2022-09-21T09:02:36;12.20;1.00
6662;DHT22;3367;48.714;8.994;2022-09-21T09:05:16;12.40;1.00
6662;DHT22;3367;48.714;8.994;2022-09-21T09:07:56;12.40;1.00
6662;DHT22;3367;48.714;8.994;2022-09-21T09:10:37;12.20;1.00
6662;DHT22;3367;48.714;8.994;2022-09-21T09:13:36;12.30;1.00
6662;DHT22;3367;48.714;8.994;2022-09-21T09:16:13;12.40;1.00
6662;DHT22;3367;48.714;8.994;2022-09-21T09:18:44;12.60;1.00
6662;DHT22;3367;48.714;8.994;2022-09-21T09:21:16;12.60;1.00
6662;DHT22;3367;48.714;8.994;2022-09-21T09:23:50;12.80;1.00
6662;DHT22;3367;48.714;8.994;2022-09-21T09:26:24;12.90;1.00
6662;DHT22;3367;48.714;8.994;2022-09-21T09:28:56;12.70;1.00
6662;DHT22;3367;48.714;8.994;2022-09-21T09:31:27;12.90;1.00
6662;DHT22;3367;48.714;8.994;2022-09-21T09:33:58;13.10;1.00
6662;DHT22;3367;48.714;8.994;2022-09-21T09:36:28;13.50;1.00
6662;DHT22;3367;48.714;8.994;2022-09-21T09:39:00;13.60;1.00
6662;DHT22;3367;48.714;8.994;2022-09-21T09:41:54;13.70;1.00
6662;DHT22;3367;48.714;8.994;2022-09-21T09:47:35;13.50;1.00
6662;DHT22;3367;48.714;8.994;2022-09-21T09:50:11;13.50;1.00
6662;DHT22;3367;48.714;8.994;2022-09-21T09:52:39;13.50;1.00
6662;DHT22;3367;48.714;8.994;2022-09-21T09:55:15;13.30;1.00
6662;DHT22;3367;48.714;8.994;2022-09-21T09:57:46;13.10;1.00
6662;DHT22;3367;48.714;8.994;2022-09-21T10:00:15;13.20;1.00
6662;DHT22;3367;48.714;8.994;2022-09-21T10:02:47;13.30;1.00
6662;DHT22;3367;48.714;8.994;2022-09-21T10:05:29;13.50;1.00
6662;DHT22;3367;48.714;8.994;2022-09-21T10:07:56;13.60;1.00
6662;DHT22;3367;48.714;8.994;2022-09-21T10:10:30;13.70;1.00
6662;DHT22;3367;48.714;8.994;2022-09-21T10:13:07;14.10;1.00
6662;DHT22;3367;48.714;8.994;2022-09-21T10:15:39;14.30;1.00
6662;DHT22;3367;48.714;8.994;2022-09-21T10:18:15;14.30;1.00
6662;DHT22;3367;48.714;8.994;2022-09-21T10:20:52;14.00;1.00
6662;DHT22;3367;48.714;8.994;2022-09-21T10:23:20;13.90;1.00
6662;DHT22;3367;48.714;8.994;2022-09-21T10:25:53;13.90;1.00
6662;DHT22;3367;48.714;8.994;2022-09-21T10:28:21;13.90;1.00
6662;DHT22;3367;48.714;8.994;2022-09-21T10:30:48;14.00;1.00
6662;DHT22;3367;48.714;8.994;2022-09-21T10:33:18;14.30;1.00
6662;DHT22;3367;48.714;8.994;2022-09-21T10:35:50;14.30;1.00
6662;DHT22;3367;48.714;8.994;2022-09-21T10:38:18;14.40;1.00
6662;DHT22;3367;48.714;8.994;2022-09-21T10:40:46;14.30;1.00
6662;DHT22;3367;48.714;8.994;2022-09-21T10:43:27;14.40;1.00
6662;DHT22;3367;48.714;8.994;2022-09-21T10:45:56;14.60;1.00
6662;DHT22;3367;48.714;8.994;2022-09-21T10:48:24;14.70;1.00
6662;DHT22;3367;48.714;8.994;2022-09-21T10:50:54;14.50;1.00
6662;DHT22;3367;48.714;8.994;2022-09-21T10:53:23;14.20;1.00
6662;DHT22;3367;48.714;8.994;2022-09-21T10:55:56;14.40;1.00
6662;DHT22;3367;48.714;8.994;2022-09-21T10:58:24;14.30;1.00
6662;DHT22;3367;48.714;8.994;2022-09-21T11:00:52;14.30;1.00
6662;DHT22;3367;48.714;8.994;2022-09-21T11:03:35;14.30;1.00
6662;DHT22;3367;48.714;8.994;2022-09-21T11:06:10;14.20;1.00
6662;DHT22;3367;48.714;8.994;2022-09-21T11:08:43;14.00;1.00
6662;DHT22;3367;48.714;8.994;2022-09-21T11:11:27;13.90;1.00
6662;DHT22;3367;48.714;8.994;2022-09-21T11:14:02;13.90;1.00
6662;DHT22;3367;48.714;8.994;2022-09-21T11:16:35;14.00;1.00
6662;DHT22;3367;48.714;8.994;2022-09-21T11:19:11;14.00;1.00
6662;DHT22;3367;48.714;8.994;2022-09-21T11:21:45;14.20;1.00
6662;DHT22;3367;48.714;8.994;2022-09-21T11:24:21;14.60;1.00
6662;DHT22;3367;48.714;8.994;2022-09-21T11:26:52;14.50;1.00
6662;DHT22;3367;48.714;8.994;2022-09-21T11:29:25;14.70;1.00
6662;DHT22;3367;48.714;8.994;2022-09-21T11:32:15;15.10;1.00
6662;DHT22;3367;48.714;8.994;2022-09-21T11:35:22;15.20;1.00
6662;DHT22;3367;48.714;8.994;2022-09-21T11:38:03;15.50;1.00
6662;DHT22;3367;48.714;8.994;2022-09-21T11:40:49;15.40;1.00
6662;DHT22;3367;48.714;8.994;2022-09-21T11:43:30;15.10;1.00
6662;DHT22;3367;48.714;8.994;2022-09-21T11:46:10;14.60;1.00
6662;DHT22;3367;48.714;8.994;2022-09-21T11:48:50;14.80;1.00
6662;DHT22;3367;48.714;8.994;2022-09-21T11:51:34;14.80;1.00
6662;DHT22;3367;48.714;8.994;2022-09-21T11:54:33;15.00;1.00
6662;DHT22;3367;48.714;8.994;2022-09-21T11:57:07;15.10;1.00
6662;DHT22;3367;48.714;8.994;2022-09-21T11:59:52;15.20;1.00
6662;DHT22;3367;48.714;8.994;2022-09-21T12:02:43;14.90;1.00
6662;DHT22;3367;48.714;8.994;2022-09-21T12:05:20;14.40;1.00
6662;DHT22;3367;48.714;8.994;2022-09-21T12:08:00;14.60;1.00
6662;DHT22;3367;48.714;8.994;2022-09-21T12:10:38;15.00;1.00
6662;DHT22;3367;48.714;8.994;2022-09-21T12:13:10;15.30;1.00
6662;DHT22;3367;48.714;8.994;2022-09-21T12:15:44;15.40;1.00
6662;DHT22;3367;48.714;8.994;2022-09-21T12:18:21;15.70;1.00
6662;DHT22;3367;48.714;8.994;2022-09-21T12:20:55;15.90;1.00
6662;DHT22;3367;48.714;8.994;2022-09-21T12:23:38;15.80;1.00
6662;DHT22;3367;48.714;8.994;2022-09-21T12:26:07;15.70;1.00
6662;DHT22;3367;48.714;8.994;2022-09-21T12:28:39;15.50;1.00
6662;DHT22;3367;48.714;8.994;2022-09-21T12:31:13;15.10;1.00
6662;DHT22;3367;48.714;8.994;2022-09-21T12:33:47;14.80;1.00
6662;DHT22;3367;48.714;8.994;2022-09-21T12:36:17;14.60;1.00
6662;DHT22;3367;48.714;8.994;2022-09-21T12:38:51;14.50;1.00
6662;DHT22;3367;48.714;8.994;2022-09-21T12:41:23;14.50;1.00
6662;DHT22;3367;48.714;8.994;2022-09-21T12:43:58;14.40;1.00
6662;DHT22;3367;48.714;8.994;2022-09-21T12:46:30;14.40;1.00
6662;DHT22;3367;48.714;8.994;2022-09-21T12:49:02;14.50;1.00
6662;DHT22;3367;48.714;8.994;2022-09-21T12:51:37;14.40;1.00
6662;DHT22;3367;48.714;8.994;2022-09-21T12:54:11;14.30;1.00
6662;DHT22;3367;48.714;8.994;2022-09-21T12:56:43;14.50;1.00
6662;DHT22;3367;48.714;8.994;2022-09-21T12:59:21;14.50;1.00
6662;DHT22;3367;48.714;8.994;2022-09-21T13:01:53;14.70;1.00
6662;DHT22;3367;48.714;8.994;2022-09-21T13:04:34;14.90;1.00
6662;DHT22;3367;48.714;8.994;2022-09-21T13:07:20;14.90;1.00
6662;DHT22;3367;48.714;8.994;2022-09-21T13:09:55;14.80;1.00
6662;DHT22;3367;48.714;8.994;2022-09-21T13:12:25;14.80;1.00
6662;DHT22;3367;48.714;8.994;2022-09-21T13:14:58;14.80;1.00
6662;DHT22;3367;48.714;8.994;2022-09-21T13:17:29;14.80;1.00
6662;DHT22;3367;48.714;8.994;2022-09-21T13:20:00;14.70;1.00
6662;DHT22;3367;48.714;8.994;2022-09-21T13:22:30;14.70;1.00
6662;DHT22;3367;48.714;8.994;2022-09-21T13:25:00;14.90;1.00
6662;DHT22;3367;48.714;8.994;2022-09-21T13:27:57;14.90;1.00
6662;DHT22;3367;48.714;8.994;2022-09-21T13:30:34;15.00;1.00
6662;DHT22;3367;48.714;8.994;2022-09-21T13:33:02;15.20;1.00
6662;DHT22;3367;48.714;8.994;2022-09-21T13:35:59;15.40;1.00
6662;DHT22;3367;48.714;8.994;2022-09-21T13:38:27;15.70;1.00
6662;DHT22;3367;48.714;8.994;2022-09-21T13:40:57;15.70;1.00
6662;DHT22;3367;48.714;8.994;2022-09-21T13:44:01;15.60;1.00
6662;DHT22;3367;48.714;8.994;2022-09-21T13:46:51;15.40;1.00
6662;DHT22;3367;48.714;8.994;2022-09-21T13:49:29;15.50;1.00
6662;DHT22;3367;48.714;8.994;2022-09-21T13:52:01;15.60;1.00
6662;DHT22;3367;48.714;8.994;2022-09-21T13:54:32;15.80;1.00
6662;DHT22;3367;48.714;8.994;2022-09-21T13:57:03;15.80;1.00
6662;DHT22;3367;48.714;8.994;2022-09-21T13:59:32;15.90;1.00
6662;DHT22;3367;48.714;8.994;2022-09-21T14:01:59;15.90;1.00
6662;DHT22;3367;48.714;8.994;2022-09-21T14:04:30;15.90;1.00
6662;DHT22;3367;48.714;8.994;2022-09-21T14:07:03;15.50;1.00
6662;DHT22;3367;48.714;8.994;2022-09-21T14:09:39;15.10;1.00
6662;DHT22;3367;48.714;8.994;2022-09-21T14:12:16;15.00;1.00
6662;DHT22;3367;48.714;8.994;2022-09-21T14:15:08;14.80;1.00
6662;DHT22;3367;48.714;8.994;2022-09-21T14:17:38;14.80;1.00
6662;DHT22;3367;48.714;8.994;2022-09-21T14:20:25;15.00;1.00
6662;DHT22;3367;48.714;8.994;2022-09-21T14:23:24;15.00;1.00
6662;DHT22;3367;48.714;8.994;2022-09-21T14:25:53;15.20;1.00
6662;DHT22;3367;48.714;8.994;2022-09-21T14:28:31;15.20;1.00
6662;DHT22;3367;48.714;8.994;2022-09-21T14:31:02;15.30;1.00
6662;DHT22;3367;48.714;8.994;2022-09-21T14:33:42;15.50;1.00
6662;DHT22;3367;48.714;8.994;2022-09-21T14:36:14;15.40;1.00
6662;DHT22;3367;48.714;8.994;2022-09-21T14:38:46;15.40;1.00
6662;DHT22;3367;48.714;8.994;2022-09-21T14:41:18;15.40;1.00
6662;DHT22;3367;48.714;8.994;2022-09-21T14:43:48;15.50;1.00
6662;DHT22;3367;48.714;8.994;2022-09-21T14:46:29;15.70;1.00
6662;DHT22;3367;48.714;8.994;2022-09-21T14:49:12;15.70;1.00
6662;DHT22;3367;48.714;8.994;2022-09-21T14:51:51;15.60;1.00
6662;DHT22;3367;48.714;8.994;2022-09-21T14:54:32;15.50;1.00
6662;DHT22;3367;48.714;8.994;2022-09-21T14:57:14;15.40;1.00
6662;DHT22;3367;48.714;8.994;2022-09-21T15:00:05;15.60;1.00
6662;DHT22;3367;48.714;8.994;2022-09-21T15:02:40;15.50;1.00
6662;DHT22;3367;48.714;8.994;2022-09-21T15:05:18;15.50;1.00
6662;DHT22;3367;48.714;8.994;2022-09-21T15:08:09;15.60;1.00
6662;DHT22;3367;48.714;8.994;2022-09-21T15:11:04;15.50;1.00
6662;DHT22;3367;48.714;8.994;2022-09-21T15:13:57;15.50;1.00
6662;DHT22;3367;48.714;8.994;2022-09-21T15:16:34;15.50;1.00
6662;DHT22;3367;48.714;8.994;2022-09-21T15:19:20;15.50;1.00
6662;DHT22;3367;48.714;8.994;2022-09-21T15:21:48;15.50;1.00
6662;DHT22;3367;48.714;8.994;2022-09-21T15:24:24;15.50;1.00
6662;DHT22;3367;48.714;8.994;2022-09-21T15:27:01;15.40;1.00
6662;DHT22;3367;48.714;8.994;2022-09-21T15:29:31;15.40;1.00
6662;DHT22;3367;48.714;8.994;2022-09-21T15:31:58;15.50;1.00
6662;DHT22;3367;48.714;8.994;2022-09-21T15:34:25;15.30;1.00
6662;DHT22;3367;48.714;8.994;2022-09-21T15:36:52;15.40;1.00
6662;DHT22;3367;48.714;8.994;2022-09-21T15:39:21;15.30;1.00
6662;DHT22;3367;48.714;8.994;2022-09-21T15:42:12;15.10;1.00
6662;DHT22;3367;48.714;8.994;2022-09-21T15:44:44;15.20;1.00
6662;DHT22;3367;48.714;8.994;2022-09-21T15:47:14;15.10;1.00
6662;DHT22;3367;48.714;8.994;2022-09-21T15:49:41;15.10;1.00
6662;DHT22;3367;48.714;8.994;2022-09-21T15:52:15;14.90;1.00
6662;DHT22;3367;48.714;8.994;2022-09-21T15:54:45;14.70;1.00
6662;DHT22;3367;48.714;8.994;2022-09-21T15:57:29;14.50;1.00
6662;DHT22;3367;48.714;8.994;2022-09-21T15:59:58;14.40;1.00
6662;DHT22;3367;48.714;8.994;2022-09-21T16:02:25;14.50;1.00
6662;DHT22;3367;48.714;8.994;2022-09-21T16:04:54;14.50;1.00
6662;DHT22;3367;48.714;8.994;2022-09-21T16:07:25;14.40;1.00
6662;DHT22;3367;48.714;8.994;2022-09-21T16:09:55;14.40;1.00
6662;DHT22;3367;48.714;8.994;2022-09-21T16:15:22;14.40;1.00
6662;DHT22;3367;48.714;8.994;2022-09-21T16:17:57;14.60;1.00
6662;DHT22;3367;48.714;8.994;2022-09-21T16:20:38;14.80;1.00
6662;DHT22;3367;48.714;8.994;2022-09-21T16:23:12;14.50;1.00
6662;DHT22;3367;48.714;8.994;2022-09-21T16:25:39;14.50;1.00
6662;DHT22;3367;48.714;8.994;2022-09-21T16:28:27;14.30;1.00
6662;DHT22;3367;48.714;8.994;2022-09-21T16:30:55;14.20;1.00
6662;DHT22;3367;48.714;8.994;2022-09-21T16:33:37;14.20;1.00
6662;DHT22;3367;48.714;8.994;2022-09-21T16:36:33;14.20;1.00
6662;DHT22;3367;48.714;8.994;2022-09-21T16:39:03;14.10;1.00
6662;DHT22;3367;48.714;8.994;2022-09-21T16:41:33;14.00;1.00
6662;DHT22;3367;48.714;8.994;2022-09-21T16:44:02;13.90;1.00
6662;DHT22;3367;48.714;8.994;2022-09-21T16:46:29;13.90;1.00
6662;DHT22;3367;48.714;8.994;2022-09-21T16:48:57;13.80;1.00
6662;DHT22;3367;48.714;8.994;2022-09-21T16:51:26;13.80;1.00
6662;DHT22;3367;48.714;8.994;2022-09-21T16:53:53;13.70;1.00
6662;DHT22;3367;48.714;8.994;2022-09-21T16:56:21;13.60;1.00
6662;DHT22;3367;48.714;8.994;2022-09-21T16:58:47;13.50;1.00
6662;DHT22;3367;48.714;8.994;2022-09-21T17:01:18;13.40;1.00
6662;DHT22;3367;48.714;8.994;2022-09-21T17:03:46;13.30;1.00